Time;durP1;ratioP1;P1;durP2;ratioP2;P2;SDS_P1;SDS_P2;PMS_P1;PMS_P2;Temp;Humidity;BMP_temperature;BMP_pressure;BME280_temperature;BME280_humidity;BME280_pressure;Samples;Min_cycle;Max_cycle;Signal;HPM_P1;HPM_P2
2022/02/12 08:24:45;;;;;;;;;20.00;20.00;;;;;17.06;54.47;102591.28;5052848;27;45551;-68
2022/02/12 08:27:11;;;;;;;;;24.75;21.00;;;;;17.22;54.57;102586.81;5042957;28;49033;-69
2022/02/12 08:29:37;;;;;;;;;16.25;16.25;;;;;17.46;54.60;102574.88;5038311;28;45476;-67
2022/02/12 08:32:03;;;;;;;;;20.00;20.00;;;;;17.71;54.27;102581.59;5039725;28;45565;-69
2022/02/12 08:34:29;;;;;;;;;22.50;19.75;;;;;17.96;54.37;102578.41;5042116;28;45551;-69
2022/02/12 08:36:55;;;;;;;;;19.25;19.25;;;;;18.22;53.98;102584.13;5036986;28;45485;-69
2022/02/12 08:39:22;;;;;;;;;24.00;20.25;;;;;18.47;53.93;102582.69;5036986;28;45470;-71
2022/02/12 08:41:48;;;;;;;;;15.75;15.75;;;;;18.70;52.85;102578.66;5038175;28;46979;-69
2022/02/12 08:44:13;;;;;;;;;23.25;18.25;;;;;18.93;52.83;102571.00;5043793;28;46732;-70
2022/02/12 08:46:39;;;;;;;;;23.50;17.25;;;;;19.16;52.09;102565.22;5041902;28;45504;-69
2022/02/12 08:49:06;;;;;;;;;26.75;21.00;;;;;19.35;51.56;102564.94;5032952;28;45463;-69
2022/02/12 08:51:37;;;;;;;;;19.50;17.50;;;;;19.53;51.23;102565.59;5035710;28;45558;-70
2022/02/12 08:54:03;;;;;;;;;22.25;18.50;;;;;19.70;51.05;102571.75;5042932;28;47626;-70
2022/02/12 08:56:29;;;;;;;;;25.75;20.75;;;;;19.84;50.56;102569.03;5046920;28;46647;-69
2022/02/12 08:58:54;;;;;;;;;25.50;21.75;;;;;19.99;49.99;102569.03;5043237;28;53108;-70
2022/02/12 09:01:19;;;;;;;;;22.75;20.25;;;;;20.09;49.67;102558.50;5038758;28;45592;-70
2022/02/12 09:03:45;;;;;;;;;18.25;16.00;;;;;20.23;49.50;102560.28;5046085;28;46434;-70
2022/02/12 09:06:11;;;;;;;;;21.25;18.25;;;;;20.36;49.20;102555.78;5046685;28;45817;-69
2022/02/12 09:08:36;;;;;;;;;18.50;18.50;;;;;20.48;49.55;102555.94;5043020;28;45732;-69
2022/02/12 09:11:01;;;;;;;;;17.25;17.25;;;;;20.58;49.50;102553.47;5045662;28;46406;-68
2022/02/12 09:13:28;;;;;;;;;14.00;13.75;;;;;20.70;49.29;102554.47;5046244;28;45382;-70
2022/02/12 09:15:55;;;;;;;;;16.50;14.50;;;;;20.82;49.17;102548.22;5045199;28;45404;-71
2022/02/12 09:18:21;;;;;;;;;15.75;15.00;;;;;20.92;48.72;102538.53;5044745;28;46022;-68
2022/02/12 09:20:46;;;;;;;;;18.00;16.25;;;;;21.02;48.53;102541.47;5059431;28;45501;-71
2022/02/12 09:23:12;;;;;;;;;19.75;15.75;;;;;21.13;48.07;102537.16;5039407;28;45846;-69
2022/02/12 09:25:38;;;;;;;;;14.50;13.25;;;;;21.23;48.50;102527.41;5036118;28;45579;-70
2022/02/12 09:28:03;;;;;;;;;16.75;15.75;;;;;21.32;47.93;102529.47;5046130;28;46309;-69
2022/02/12 09:30:29;;;;;;;;;18.50;15.50;;;;;21.43;47.93;102533.22;5050832;28;45929;-70
2022/02/12 09:32:56;;;;;;;;;15.75;14.00;;;;;21.53;47.43;102531.56;5048082;28;48244;-69
2022/02/12 09:35:22;;;;;;;;;14.67;12.33;;;;;21.63;47.76;102520.09;5036971;28;46755;-70
2022/02/12 09:37:47;;;;;;;;;17.75;15.00;;;;;21.74;47.03;102524.75;5030582;28;45714;-69
2022/02/12 09:40:13;;;;;;;;;17.50;14.00;;;;;21.81;46.22;102517.91;5032759;28;45491;-69
2022/02/12 09:42:39;;;;;;;;;15.00;14.25;;;;;21.82;45.63;102517.78;5037042;28;45523;-69
2022/02/12 09:45:05;;;;;;;;;16.25;16.00;;;;;21.85;45.60;102516.69;5027510;28;46660;-69
2022/02/12 09:47:50;;;;;;;;;19.75;14.50;;;;;21.87;45.72;102517.47;5026751;28;45514;-69
2022/02/12 09:50:22;;;;;;;;;15.25;13.75;;;;;21.89;45.52;102514.63;5030024;28;45872;-68
2022/02/12 09:52:52;;;;;;;;;14.75;13.25;;;;;21.90;44.96;102513.66;5047562;28;47514;-68
2022/02/12 09:55:23;;;;;;;;;13.00;12.00;;;;;21.91;45.29;102510.81;5023883;28;45444;-69
2022/02/12 09:57:49;;;;;;;;;13.67;13.67;;;;;21.91;44.38;102510.81;5035621;28;45244;-69
2022/02/12 10:00:19;;;;;;;;;14.67;14.00;;;;;21.89;43.93;102514.63;5026846;28;45524;-69
2022/02/12 10:02:46;;;;;;;;;16.00;14.00;;;;;21.85;42.99;102516.69;5025814;28;46177;-68
2022/02/12 10:05:29;;;;;;;;;18.00;15.00;;;;;21.84;42.72;102520.38;5022155;28;45879;-68
2022/02/12 10:08:00;;;;;;;;;16.00;14.00;;;;;21.84;42.54;102523.94;5031276;28;45606;-68
2022/02/12 10:10:28;;;;;;;;;13.00;12.67;;;;;21.83;42.45;102514.09;5019679;28;45455;-69
2022/02/12 10:13:13;;;;;;;;;13.00;11.00;;;;;21.83;41.74;102505.16;5028276;28;45836;-68
2022/02/12 10:15:39;;;;;;;;;12.33;11.00;;;;;21.86;41.35;102502.19;5045476;28;45506;-68
2022/02/12 10:18:05;;;;;;;;;10.00;10.00;;;;;21.88;41.62;102499.38;5030359;28;45461;-68
2022/02/12 10:20:33;;;;;;;;;12.33;12.33;;;;;21.92;42.20;102484.66;5022240;28;45526;-68
2022/02/12 10:23:19;;;;;;;;;13.67;11.00;;;;;21.94;42.01;102485.41;5024819;28;46354;-68
2022/02/12 10:26:02;;;;;;;;;9.33;9.33;;;;;21.98;41.63;102476.94;5027344;28;45378;-68
2022/02/12 10:28:42;;;;;;;;;12.67;11.00;;;;;22.03;42.06;102475.75;5029009;28;50564;-68
2022/02/12 10:31:08;;;;;;;;;10.67;10.67;;;;;22.08;42.12;102473.56;5039593;28;45790;-68
2022/02/12 10:33:46;;;;;;;;;11.00;9.00;;;;;22.13;42.57;102475.88;5023932;28;45431;-68
2022/02/12 10:36:15;;;;;;;;;13.00;11.33;;;;;22.16;42.21;102459.44;5027472;28;45578;-68
2022/02/12 10:38:54;;;;;;;;;5.67;5.67;;;;;22.18;42.41;102463.75;5043980;28;45420;-68
2022/02/12 10:41:21;;;;;;;;;12.00;12.00;;;;;22.20;41.97;102450.13;5028191;28;45714;-68
2022/02/12 10:43:53;;;;;;;;;12.33;11.00;;;;;22.21;42.29;102450.00;5027553;28;47360;-68
2022/02/12 10:46:19;;;;;;;;;9.33;9.33;;;;;22.21;42.18;102447.28;5027343;28;45463;-68
2022/02/12 10:48:46;;;;;;;;;9.67;9.67;;;;;22.23;41.91;102445.31;5027545;28;45727;-68
2022/02/12 10:51:16;;;;;;;;;13.33;10.67;;;;;22.27;41.83;102440.53;5024619;28;45869;-68
2022/02/12 10:54:06;;;;;;;;;10.33;10.00;;;;;22.32;42.01;102437.47;5023447;28;45384;-68
2022/02/12 10:56:51;;;;;;;;;9.67;8.33;;;;;22.36;42.06;102433.56;5039821;28;45559;-68
2022/02/12 10:59:22;;;;;;;;;9.00;8.00;;;;;22.37;41.69;102430.72;5025683;28;45480;-68
2022/02/12 11:01:47;;;;;;;;;12.67;7.33;;;;;22.38;41.70;102427.06;5025451;28;45389;-68
2022/02/12 11:04:15;;;;;;;;;9.33;9.33;;;;;22.42;41.53;102415.97;5028432;28;47544;-70
2022/02/12 11:06:44;;;;;;;;;11.00;9.00;;;;;22.44;41.26;102417.56;5022727;28;45792;-69
2022/02/12 11:09:10;;;;;;;;;13.33;10.33;;;;;22.47;41.26;102416.47;5020519;28;45571;-68
2022/02/12 11:11:35;;;;;;;;;12.33;8.00;;;;;22.51;41.47;102415.25;5022639;28;45768;-73
2022/02/12 11:14:01;;;;;;;;;11.00;8.67;;;;;22.55;41.15;102402.34;5018267;28;46125;-69
2022/02/12 11:17:55;;;;;;;;;14.67;11.67;;;;;22.49;42.57;102403.69;5050587;27;45514;-71
2022/02/12 11:20:22;;;;;;;;;12.00;9.00;;;;;22.60;42.30;102392.06;5034582;28;46955;-69
2022/02/12 11:22:50;;;;;;;;;12.33;10.00;;;;;22.72;42.15;102384.81;5045574;28;45921;-71
2022/02/12 11:25:37;;;;;;;;;12.67;10.00;;;;;22.83;41.89;102378.50;5034212;28;45824;-69
2022/02/12 11:28:11;;;;;;;;;11.33;8.33;;;;;22.92;41.96;102375.03;5036404;28;45530;-71
2022/02/12 11:30:40;;;;;;;;;15.67;10.67;;;;;23.00;41.23;102369.00;5041132;28;45741;-71
2022/02/12 11:33:20;;;;;;;;;13.67;12.00;;;;;23.06;41.30;102363.09;5042761;28;45606;-71
2022/02/12 11:36:22;;;;;;;;;8.67;8.33;;;;;23.13;41.69;102358.03;5036692;28;45680;-71
2022/02/12 11:38:49;;;;;;;;;7.67;7.67;;;;;23.21;41.50;102343.88;5037863;28;46006;-70
2022/02/12 11:41:27;;;;;;;;;11.67;8.33;;;;;23.29;41.25;102344.94;5040367;28;45395;-72
2022/02/12 11:43:54;;;;;;;;;11.67;8.33;;;;;23.35;40.93;102327.34;5033889;28;45543;-70
2022/02/12 11:46:44;;;;;;;;;11.00;10.67;;;;;23.42;40.98;102325.81;5038203;28;45531;-72
2022/02/12 11:49:36;;;;;;;;;9.33;7.33;;;;;23.49;40.84;102315.34;5035718;28;45971;-73
2022/02/12 11:52:31;;;;;;;;;8.67;8.33;;;;;23.54;40.73;102310.38;5032418;28;45385;-73
2022/02/12 11:54:57;;;;;;;;;11.00;6.67;;;;;23.60;40.68;102314.44;5034142;28;46775;-70
2022/02/12 11:57:25;;;;;;;;;9.67;7.67;;;;;23.64;40.50;102317.72;5035727;28;45498;-72
2022/02/12 12:00:00;;;;;;;;;6.67;6.67;;;;;23.67;40.45;102312.06;5034682;28;46138;-72
2022/02/12 12:02:46;;;;;;;;;10.67;9.00;;;;;23.69;40.54;102304.63;5034939;28;45416;-72
2022/02/12 12:05:18;;;;;;;;;7.33;7.00;;;;;23.73;40.26;102302.50;5034944;28;45836;-73
2022/02/12 12:08:09;;;;;;;;;10.00;10.00;;;;;23.73;40.37;102291.66;5038227;28;45617;-72
2022/02/12 12:10:36;;;;;;;;;5.00;5.00;;;;;23.72;40.27;102282.69;5049920;28;47237;-72
2022/02/12 12:13:27;;;;;;;;;10.00;7.33;;;;;23.78;40.21;102284.00;5032236;28;46027;-72
2022/02/12 12:15:57;;;;;;;;;8.00;7.00;;;;;23.79;40.14;102277.59;5055397;28;45586;-72
2022/02/12 12:18:26;;;;;;;;;9.00;6.00;;;;;23.83;40.53;102270.94;5053615;27;48123;-72
2022/02/12 12:20:53;;;;;;;;;9.67;6.67;;;;;23.87;40.22;102266.94;5037403;28;46863;-72
2022/02/12 12:23:20;;;;;;;;;5.33;5.33;;;;;23.88;40.04;102256.94;5051127;27;45491;-72
2022/02/12 12:26:04;;;;;;;;;9.67;8.00;;;;;23.89;40.27;102251.41;5054169;28;45477;-73
2022/02/12 12:28:30;;;;;;;;;6.67;5.00;;;;;23.89;40.23;102245.97;5042178;28;45498;-73
2022/02/12 12:30:58;;;;;;;;;8.00;6.00;;;;;23.93;40.11;102239.28;5042142;28;45531;-73
2022/02/12 12:33:26;;;;;;;;;6.67;6.67;;;;;23.95;39.50;102241.88;5042583;28;45543;-73
2022/02/12 12:35:53;;;;;;;;;6.33;6.33;;;;;23.94;39.96;102242.84;5049437;28;45770;-72
2022/02/12 12:38:19;;;;;;;;;8.33;8.00;;;;;23.94;39.77;102242.84;5051505;28;45675;-72
2022/02/12 12:40:44;;;;;;;;;9.00;6.00;;;;;23.98;39.82;102238.88;5046904;28;45837;-73
2022/02/12 12:43:10;;;;;;;;;8.33;8.00;;;;;24.01;39.64;102244.03;5043788;28;45575;-72
2022/02/12 12:45:40;;;;;;;;;4.67;4.67;;;;;24.05;39.43;102231.94;5043862;28;45424;-72
2022/02/12 12:48:06;;;;;;;;;4.67;3.00;;;;;24.09;39.77;102235.25;5038851;28;45749;-72
2022/02/12 12:50:36;;;;;;;;;6.67;6.67;;;;;24.07;39.89;102212.78;5040936;28;45946;-72
2022/02/12 12:53:11;;;;;;;;;8.00;3.67;;;;;24.15;39.85;102223.84;5031734;28;45408;-72
2022/02/12 12:55:38;;;;;;;;;6.67;5.00;;;;;24.14;39.39;102215.84;5024277;28;45609;-72
2022/02/12 12:58:11;;;;;;;;;6.67;6.33;;;;;24.20;39.68;102220.75;5030306;28;45639;-71
2022/02/12 13:00:36;;;;;;;;;5.00;5.00;;;;;24.24;39.66;102211.34;5024966;28;46043;-72
2022/02/12 13:03:01;;;;;;;;;8.00;6.33;;;;;24.28;39.57;102207.31;5025158;28;45733;-72
2022/02/12 13:05:29;;;;;;;;;8.67;7.33;;;;;24.30;39.34;102202.63;5026816;28;45534;-72
2022/02/12 13:07:59;;;;;;;;;5.00;5.00;;;;;24.33;39.53;102199.63;5025122;28;45593;-73
2022/02/12 13:10:27;;;;;;;;;6.00;4.00;;;;;24.34;39.43;102192.34;5026329;28;45536;-72
2022/02/12 13:12:53;;;;;;;;;6.33;5.00;;;;;24.38;39.41;102190.22;5029997;28;45775;-72
2022/02/12 13:15:24;;;;;;;;;6.00;6.00;;;;;24.39;39.52;102184.66;5031038;28;45398;-72
2022/02/12 13:17:54;;;;;;;;;7.00;5.00;;;;;24.42;39.38;102176.25;5027283;28;45547;-72
2022/02/12 13:20:22;;;;;;;;;5.67;5.67;;;;;24.45;39.41;102169.69;5031218;28;46472;-72
2022/02/12 13:23:10;;;;;;;;;7.00;5.00;;;;;24.43;39.27;102158.94;5029546;28;45510;-72
2022/02/12 13:25:39;;;;;;;;;7.67;5.33;;;;;24.48;39.38;102164.81;5027768;28;45595;-72
2022/02/12 13:28:06;;;;;;;;;5.00;5.00;;;;;24.48;39.40;102156.66;5030917;28;45379;-72
2022/02/12 13:30:34;;;;;;;;;8.00;5.00;;;;;24.52;39.51;102153.69;5028645;28;45613;-71
2022/02/12 13:33:04;;;;;;;;;6.00;5.00;;;;;24.53;39.51;102137.28;5022934;28;45511;-71
2022/02/12 13:35:38;;;;;;;;;6.00;6.00;;;;;24.57;39.56;102138.66;5019668;28;45474;-71
2022/02/12 13:38:04;;;;;;;;;9.67;5.00;;;;;24.63;39.60;102133.66;5022071;28;45477;-72
2022/02/12 13:40:37;;;;;;;;;6.67;4.67;;;;;24.61;39.34;102123.81;5018909;28;45807;-72
2022/02/12 13:43:11;;;;;;;;;4.33;4.33;;;;;24.65;39.09;102120.84;5015932;28;45487;-72
2022/02/12 13:45:40;;;;;;;;;7.00;7.00;;;;;24.69;39.54;102112.25;5019918;28;45439;-72
2022/02/12 13:48:21;;;;;;;;;4.67;4.33;;;;;24.70;39.56;102110.41;5023662;28;45595;-72
2022/02/12 13:50:47;;;;;;;;;7.33;4.33;;;;;24.71;39.27;102093.09;5021899;28;45674;-72
2022/02/12 13:53:21;;;;;;;;;4.33;4.00;;;;;24.77;39.25;102095.22;5024322;28;45898;-71
2022/02/12 13:56:04;;;;;;;;;5.67;5.33;;;;;24.78;38.15;102096.97;5022233;28;45551;-73
2022/02/12 20:09:04;;;;;;;;;12.00;11.25;;;;;17.98;49.82;101861.84;5033596;27;45814;-71
2022/02/12 20:11:30;;;;;;;;;13.50;11.50;;;;;18.11;50.18;101861.06;5019756;28;45739;-73
2022/02/12 20:13:55;;;;;;;;;13.50;12.50;;;;;18.30;50.60;101866.00;5009347;28;45629;-73
2022/02/12 20:16:21;;;;;;;;;10.25;7.50;;;;;18.52;50.52;101854.59;5022496;28;45522;-73
2022/02/12 20:18:46;;;;;;;;;15.25;12.50;;;;;18.80;50.11;101859.88;5020025;28;45457;-72
2022/02/12 20:21:12;;;;;;;;;15.25;13.25;;;;;19.07;50.06;101851.69;5023357;28;45505;-72
2022/02/12 20:23:38;;;;;;;;;12.00;8.50;;;;;19.35;49.86;101844.28;5021490;28;45506;-72
2022/02/12 20:26:05;;;;;;;;;10.75;10.50;;;;;19.66;49.68;101851.88;5019151;28;46353;-71
2022/02/12 20:28:30;;;;;;;;;12.00;11.25;;;;;19.98;49.14;101866.59;5019926;28;46586;-72
2022/02/12 20:30:56;;;;;;;;;12.50;8.50;;;;;20.25;48.83;101865.44;5023078;28;45481;-72
2022/02/12 20:33:21;;;;;;;;;9.00;8.00;;;;;20.54;48.11;101868.56;5015153;28;45625;-71
2022/02/12 20:35:47;;;;;;;;;11.75;9.75;;;;;20.82;48.28;101870.91;5022768;28;45560;-72
2022/02/12 20:38:12;;;;;;;;;14.00;8.50;;;;;21.08;47.86;101859.03;5013814;28;45895;-72
2022/02/12 20:40:38;;;;;;;;;8.00;8.00;;;;;21.30;47.54;101867.06;5016914;27;45586;-72
2022/02/12 20:43:04;;;;;;;;;11.50;11.00;;;;;21.49;46.45;101872.81;5019820;28;45424;-72
2022/02/12 20:45:30;;;;;;;;;12.00;9.33;;;;;21.69;46.39;101865.72;5017685;28;45396;-72
2022/02/12 20:47:56;;;;;;;;;15.00;9.33;;;;;21.84;46.47;101855.50;5018785;28;45552;-72
2022/02/12 20:50:21;;;;;;;;;9.67;8.33;;;;;21.96;46.42;101850.88;5016839;27;45511;-72
2022/02/12 20:52:46;;;;;;;;;8.33;8.33;;;;;22.12;45.41;101855.84;5022615;28;45529;-73
2022/02/12 20:55:12;;;;;;;;;13.33;9.67;;;;;22.24;45.36;101862.03;5023621;28;45411;-72
2022/02/12 20:57:37;;;;;;;;;10.33;10.00;;;;;22.35;45.68;101853.84;5021108;28;46223;-71
2022/02/12 21:00:08;;;;;;;;;9.00;9.00;;;;;22.46;45.30;101855.59;5018672;28;45499;-70
2022/02/12 21:02:35;;;;;;;;;14.00;11.67;;;;;22.51;45.62;101844.38;5015240;28;45626;-72
2022/02/12 21:05:01;;;;;;;;;11.00;9.00;;;;;22.63;45.22;101858.69;5026222;27;45462;-73
2022/02/12 21:07:26;;;;;;;;;11.33;9.67;;;;;22.71;45.15;101842.66;5018782;28;45398;-72
2022/02/12 21:09:52;;;;;;;;;11.33;8.00;;;;;22.79;44.67;101852.78;5021344;27;45599;-70
2022/02/12 21:12:19;;;;;;;;;11.67;10.67;;;;;22.86;45.02;101843.13;5014208;28;50922;-72
2022/02/12 21:14:45;;;;;;;;;9.33;9.33;;;;;22.96;44.66;101845.00;5019019;28;46927;-69
2022/02/12 21:17:10;;;;;;;;;8.67;8.00;;;;;23.02;44.54;101839.88;5017076;28;45929;-71
2022/02/12 21:19:36;;;;;;;;;8.33;8.33;;;;;23.11;44.42;101837.34;5009322;28;45516;-71
2022/02/12 21:22:03;;;;;;;;;11.67;8.67;;;;;23.14;44.28;101834.38;5013414;28;45702;-70
2022/02/12 21:24:29;;;;;;;;;12.00;9.00;;;;;23.23;43.78;101838.06;5014906;28;45513;-72
2022/02/12 21:26:56;;;;;;;;;9.00;7.33;;;;;23.25;43.82;101834.22;5008782;28;46933;-72
2022/02/12 21:29:22;;;;;;;;;10.00;9.00;;;;;23.26;43.76;101835.94;5010456;28;45452;-72
2022/02/12 21:31:48;;;;;;;;;9.33;9.33;;;;;23.26;43.46;101821.56;5004781;28;45572;-72
2022/02/12 21:34:15;;;;;;;;;8.33;8.00;;;;;23.32;43.62;101823.69;5001095;28;45509;-71
2022/02/12 21:36:40;;;;;;;;;12.33;9.67;;;;;23.39;43.43;101821.31;5009736;28;45451;-69
2022/02/12 21:39:06;;;;;;;;;8.67;7.00;;;;;23.42;43.73;101821.88;5011213;27;58377;-71
2022/02/12 21:41:32;;;;;;;;;8.33;8.00;;;;;23.49;43.71;101834.84;5007261;28;45544;-71
2022/02/12 21:43:57;;;;;;;;;9.00;9.00;;;;;23.55;43.53;101832.44;5015342;27;45546;-71
2022/02/12 21:46:23;;;;;;;;;8.33;6.00;;;;;23.60;42.99;101831.16;5006466;28;46101;-71
2022/02/12 21:48:48;;;;;;;;;9.67;8.00;;;;;23.62;43.31;101824.59;5010999;28;45584;-72
2022/02/12 21:51:13;;;;;;;;;11.00;10.00;;;;;23.64;43.16;101822.59;4986000;28;45553;-72
2022/02/12 21:53:39;;;;;;;;;8.67;7.67;;;;;23.68;42.85;101836.72;5003020;27;46375;-71
2022/02/12 21:56:06;;;;;;;;;8.00;6.67;;;;;23.67;42.95;101837.72;5007997;28;46271;-70
2022/02/12 21:58:36;;;;;;;;;9.67;8.67;;;;;23.68;43.14;101845.72;5012825;28;45513;-69
2022/02/12 22:01:01;;;;;;;;;12.67;8.00;;;;;23.65;43.15;101835.16;5009007;28;45395;-71
2022/02/12 22:03:27;;;;;;;;;12.33;9.67;;;;;23.75;43.20;101840.56;5006478;28;45528;-71
2022/02/12 22:05:52;;;;;;;;;10.67;9.33;;;;;23.80;43.51;101842.84;5007594;28;46564;-72
2022/02/12 22:08:17;;;;;;;;;11.33;8.33;;;;;23.79;43.22;101830.31;4992659;28;45585;-72
2022/02/12 22:10:43;;;;;;;;;11.67;10.00;;;;;23.79;43.06;101831.13;5007245;28;45424;-72
2022/02/12 22:13:10;;;;;;;;;9.33;9.33;;;;;23.81;43.09;101833.72;4996200;28;45757;-72
2022/02/12 22:15:35;;;;;;;;;7.00;7.00;;;;;23.81;43.12;101831.00;5009382;28;46369;-72
2022/02/12 22:18:00;;;;;;;;;10.67;7.67;;;;;23.83;42.88;101831.72;4999645;28;45518;-72
2022/02/12 22:20:26;;;;;;;;;10.00;9.00;;;;;23.89;42.92;101830.28;5008777;28;45546;-72
2022/02/12 22:22:53;;;;;;;;;11.00;8.00;;;;;23.95;42.71;101827.00;5007396;28;45408;-74
2022/02/12 22:25:18;;;;;;;;;9.67;9.67;;;;;23.98;42.83;101828.56;5007544;28;47255;-73
2022/02/12 22:27:44;;;;;;;;;9.00;7.33;;;;;23.98;42.41;101834.81;5015026;28;45554;-73
2022/02/12 22:30:10;;;;;;;;;8.00;8.00;;;;;24.00;42.57;101829.25;5006720;28;50073;-72
2022/02/12 22:32:36;;;;;;;;;7.00;7.00;;;;;24.03;42.47;101829.81;5009477;28;45485;-73
2022/02/12 22:35:01;;;;;;;;;9.00;8.00;;;;;24.03;42.82;101827.09;5010039;28;47219;-71
2022/02/12 22:37:27;;;;;;;;;7.67;7.00;;;;;24.06;42.69;101824.13;5004519;28;45424;-71
2022/02/12 22:39:52;;;;;;;;;8.00;8.00;;;;;24.05;42.51;101814.28;4989460;28;45418;-71
2022/02/12 22:42:18;;;;;;;;;8.67;7.33;;;;;24.06;42.47;101812.41;5009753;28;45499;-71
2022/02/12 22:44:45;;;;;;;;;7.67;7.67;;;;;24.05;42.42;101806.13;5009241;28;46162;-71
2022/02/12 22:47:10;;;;;;;;;9.67;9.67;;;;;23.99;42.01;101787.72;5010311;28;45590;-72
2022/02/12 22:49:36;;;;;;;;;11.00;7.67;;;;;24.03;42.31;101800.00;5006053;28;45548;-72
2022/02/12 22:52:01;;;;;;;;;7.67;7.67;;;;;24.02;42.27;101795.56;5009054;28;48749;-71
2022/02/12 22:54:30;;;;;;;;;8.67;8.67;;;;;23.99;42.20;101793.16;5004484;27;45490;-72
2022/02/12 22:56:55;;;;;;;;;8.00;8.00;;;;;23.99;42.21;101795.84;5010543;28;45577;-72
2022/02/12 22:59:20;;;;;;;;;9.33;8.67;;;;;24.02;42.24;101806.44;5007577;28;45327;-72
2022/02/12 23:01:48;;;;;;;;;10.00;6.33;;;;;24.03;42.56;101808.13;5009735;28;45677;-73
2022/02/12 23:04:14;;;;;;;;;6.33;6.33;;;;;24.01;42.39;101817.41;5009727;28;45589;-75
